Time;durP1;ratioP1;P1;durP2;ratioP2;P2;SDS_P1;SDS_P2;PMS_P1;PMS_P2;Temp;Humidity;BMP_temperature;BMP_pressure;BME280_temperature;BME280_humidity;BME280_pressure;Samples;Min_cycle;Max_cycle;Signal;HPM_P1;HPM_P2
2023/12/31 00:00:46;;;;;;;1.77;0.63;;;10.50;72.90;;;;;;5040442;28;20075;-90
2023/12/31 00:03:16;;;;;;;1.63;0.85;;;10.50;72.90;;;;;;5045209;28;20041;-92
2023/12/31 00:05:41;;;;;;;1.48;0.40;;;10.50;72.90;;;;;;5052825;28;20020;-91
2023/12/31 00:08:11;;;;;;;1.17;0.45;;;10.50;72.90;;;;;;5052082;28;20032;-94
2023/12/31 00:10:40;;;;;;;1.80;1.15;;;10.50;73.00;;;;;;5059110;28;20048;-93
2023/12/31 00:13:06;;;;;;;1.30;0.52;;;10.40;72.80;;;;;;5051314;28;20158;-94
2023/12/31 00:15:33;;;;;;;1.70;0.50;;;10.50;73.00;;;;;;5049250;28;20044;-92
2023/12/31 00:17:59;;;;;;;2.28;0.77;;;10.40;72.90;;;;;;5045460;28;20041;-89
2023/12/31 00:20:26;;;;;;;1.35;0.63;;;10.40;72.90;;;;;;5045059;28;20047;-91
2023/12/31 00:22:52;;;;;;;1.67;0.50;;;10.40;72.90;;;;;;5038931;28;20115;-95
2023/12/31 00:25:18;;;;;;;1.50;0.60;;;10.40;73.00;;;;;;5067959;28;20394;-93
2023/12/31 00:27:44;;;;;;;2.10;0.52;;;10.40;73.00;;;;;;5039299;28;20041;-93
2023/12/31 00:30:14;;;;;;;2.50;0.70;;;10.40;73.00;;;;;;5050512;28;20052;-92
2023/12/31 00:32:41;;;;;;;2.08;0.57;;;10.40;73.10;;;;;;5043688;28;20390;-95
2023/12/31 00:35:07;;;;;;;1.35;0.50;;;10.40;73.00;;;;;;5055027;28;20029;-96
2023/12/31 00:37:33;;;;;;;1.30;0.65;;;10.40;73.10;;;;;;5028612;28;20044;-93
2023/12/31 00:39:59;;;;;;;2.03;0.60;;;10.40;73.10;;;;;;5041396;28;20534;-90
2023/12/31 00:42:25;;;;;;;1.33;0.70;;;10.40;73.10;;;;;;5042090;28;20044;-90
2023/12/31 00:44:53;;;;;;;2.35;0.63;;;10.40;73.10;;;;;;5050101;28;20442;-89
2023/12/31 00:47:21;;;;;;;3.28;0.80;;;10.30;72.90;;;;;;5037700;28;20477;-94
2023/12/31 00:49:49;;;;;;;1.15;0.50;;;10.40;73.10;;;;;;5038124;28;20060;-90
2023/12/31 00:52:15;;;;;;;1.85;0.70;;;10.30;72.90;;;;;;5022831;28;20335;-92
2023/12/31 00:54:41;;;;;;;1.08;0.30;;;10.30;73.00;;;;;;5029972;28;20096;-92
2023/12/31 00:57:07;;;;;;;2.63;0.45;;;10.30;73.50;;;;;;5063135;28;20083;-95
2023/12/31 00:59:34;;;;;;;3.38;0.98;;;10.30;73.00;;;;;;5043014;28;20041;-96
2023/12/31 01:02:00;;;;;;;2.72;0.80;;;10.30;73.00;;;;;;5036637;28;20021;-93
2023/12/31 01:04:28;;;;;;;1.95;0.88;;;10.30;73.10;;;;;;5027214;28;20093;-94
2023/12/31 01:06:55;;;;;;;4.35;0.63;;;10.30;73.10;;;;;;5046478;28;20136;-94
2023/12/31 01:09:21;;;;;;;3.60;0.52;;;10.30;73.10;;;;;;5049904;28;20037;-94
2023/12/31 01:11:48;;;;;;;4.57;0.73;;;10.30;73.20;;;;;;5044879;28;20021;-91
2023/12/31 01:14:15;;;;;;;2.78;0.47;;;10.20;73.00;;;;;;5025711;28;20029;-91
2023/12/31 01:16:41;;;;;;;3.80;0.50;;;10.20;73.00;;;;;;5042889;28;20025;-92
2023/12/31 01:19:08;;;;;;;1.65;0.40;;;10.30;73.30;;;;;;5024902;28;20387;-93
2023/12/31 01:21:35;;;;;;;2.58;0.65;;;10.30;73.30;;;;;;5028450;28;20041;-92
2023/12/31 01:24:01;;;;;;;3.85;0.73;;;10.30;73.30;;;;;;5026283;28;20040;-92
2023/12/31 01:26:27;;;;;;;2.08;0.60;;;10.30;73.30;;;;;;5039300;28;20569;-91
2023/12/31 01:28:53;;;;;;;2.05;0.50;;;10.30;73.30;;;;;;5037834;28;20103;-89
2023/12/31 01:31:20;;;;;;;2.95;0.88;;;10.30;73.40;;;;;;5038062;28;20396;-87
2023/12/31 01:33:46;;;;;;;2.63;0.60;;;10.30;73.40;;;;;;5038227;28;20078;-88
2023/12/31 01:36:16;;;;;;;1.88;0.57;;;10.20;73.20;;;;;;5045381;28;20068;-85
2023/12/31 01:38:43;;;;;;;1.80;0.50;;;10.30;73.40;;;;;;5057441;28;20052;-88
2023/12/31 01:41:11;;;;;;;1.83;0.60;;;10.30;73.40;;;;;;5059261;28;20037;-88
2023/12/31 01:43:38;;;;;;;1.25;0.45;;;10.20;73.30;;;;;;5071761;28;20561;-88
2023/12/31 01:46:09;;;;;;;2.75;0.60;;;10.20;73.30;;;;;;5054208;28;20037;-88
2023/12/31 01:48:36;;;;;;;1.90;0.70;;;10.30;73.50;;;;;;5060894;28;20168;-87
2023/12/31 01:51:03;;;;;;;2.13;0.63;;;10.20;73.30;;;;;;5066702;28;20040;-89
2023/12/31 01:53:31;;;;;;;2.42;0.60;;;10.20;73.40;;;;;;5052090;28;20087;-87
2023/12/31 01:55:58;;;;;;;3.60;0.50;;;10.20;73.40;;;;;;5064067;28;20388;-88
2023/12/31 01:58:25;;;;;;;2.28;0.70;;;10.20;73.40;;;;;;5041034;28;20358;-87
2023/12/31 02:00:51;;;;;;;1.77;0.45;;;10.20;73.40;;;;;;5044272;28;20185;-92
2023/12/31 02:03:18;;;;;;;2.45;0.63;;;10.20;73.50;;;;;;5049853;28;20101;-85
2023/12/31 02:05:46;;;;;;;3.70;1.08;;;10.20;73.50;;;;;;5045476;28;20063;-89
2023/12/31 02:08:12;;;;;;;1.25;0.52;;;10.20;73.50;;;;;;5041543;28;20037;-91
2023/12/31 02:10:38;;;;;;;3.47;0.57;;;10.20;73.50;;;;;;5071790;28;20033;-87
2023/12/31 02:13:05;;;;;;;1.05;0.50;;;10.20;73.50;;;;;;5053515;28;20033;-90
2023/12/31 02:15:34;;;;;;;2.30;0.40;;;10.20;73.50;;;;;;5057100;28;20025;-87
2023/12/31 02:18:02;;;;;;;1.52;0.40;;;10.20;73.50;;;;;;5044042;28;20363;-88
2023/12/31 02:20:30;;;;;;;4.45;0.82;;;10.20;73.50;;;;;;5040523;28;20115;-89
2023/12/31 02:22:57;;;;;;;1.92;0.50;;;10.20;73.60;;;;;;5058981;28;20037;-92
2023/12/31 02:25:24;;;;;;;1.13;0.50;;;10.20;73.50;;;;;;5045876;28;20045;-89
2023/12/31 02:27:51;;;;;;;1.65;0.77;;;10.20;74.10;;;;;;5045111;28;20307;-93
2023/12/31 02:30:19;;;;;;;1.05;0.32;;;10.10;73.40;;;;;;5016752;28;20112;-85
2023/12/31 02:32:45;;;;;;;2.20;0.50;;;10.20;73.60;;;;;;5036016;28;20033;-87
2023/12/31 02:35:11;;;;;;;2.35;0.60;;;10.20;73.60;;;;;;5039921;28;20267;-89
2023/12/31 02:37:37;;;;;;;0.77;0.52;;;10.10;73.40;;;;;;5035373;28;20499;-88
2023/12/31 02:40:04;;;;;;;0.50;0.30;;;10.10;73.40;;;;;;5046619;28;20029;-88
2023/12/31 02:42:31;;;;;;;1.65;0.68;;;10.10;73.40;;;;;;5046396;28;20032;-87
2023/12/31 02:44:57;;;;;;;0.50;0.28;;;10.10;73.40;;;;;;5065632;28;20060;-88
2023/12/31 02:47:23;;;;;;;1.98;0.50;;;10.10;73.40;;;;;;5046678;28;20063;-90
2023/12/31 02:49:50;;;;;;;0.75;0.40;;;10.10;73.40;;;;;;5029810;28;20771;-91
2023/12/31 02:52:16;;;;;;;1.23;0.40;;;10.10;73.40;;;;;;5043631;28;20029;-87
2023/12/31 02:54:43;;;;;;;2.17;0.60;;;10.10;73.40;;;;;;5037023;28;20068;-88
2023/12/31 02:57:09;;;;;;;2.30;0.45;;;10.00;73.30;;;;;;5046723;28;20059;-90
2023/12/31 02:59:35;;;;;;;2.25;0.65;;;10.00;73.30;;;;;;5045248;28;20048;-91
2023/12/31 03:02:02;;;;;;;1.92;0.60;;;10.00;73.30;;;;;;5058168;28;20036;-89
2023/12/31 03:04:28;;;;;;;1.85;0.50;;;10.00;73.30;;;;;;5048251;28;20037;-90
2023/12/31 03:06:54;;;;;;;1.95;0.40;;;10.00;73.30;;;;;;5043298;28;20040;-90
2023/12/31 03:09:21;;;;;;;3.22;0.65;;;10.00;73.30;;;;;;5061999;28;20119;-92
2023/12/31 03:11:50;;;;;;;3.00;1.48;;;10.00;73.30;;;;;;5046569;28;20033;-92
2023/12/31 03:14:17;;;;;;;1.63;0.60;;;10.00;73.40;;;;;;5038637;28;20164;-90
2023/12/31 03:16:46;;;;;;;1.38;0.35;;;10.00;73.40;;;;;;5047386;28;20025;-91
2023/12/31 03:19:13;;;;;;;2.30;0.55;;;9.90;73.20;;;;;;5029795;28;20051;-92
2023/12/31 03:21:40;;;;;;;1.80;0.63;;;10.00;73.30;;;;;;5050221;28;20029;-92
2023/12/31 03:24:07;;;;;;;1.77;0.52;;;9.90;73.20;;;;;;5044274;28;20034;-93
2023/12/31 03:26:33;;;;;;;1.33;0.40;;;9.90;73.20;;;;;;5056565;28;20025;-90
2023/12/31 03:28:59;;;;;;;1.15;0.40;;;9.90;73.70;;;;;;5029516;28;20043;-91
2023/12/31 03:31:25;;;;;;;1.98;0.50;;;9.90;73.20;;;;;;5042808;28;20166;-94
2023/12/31 03:33:51;;;;;;;2.05;0.50;;;9.90;73.20;;;;;;5066795;28;20029;-94
2023/12/31 03:36:18;;;;;;;2.38;0.60;;;9.90;73.20;;;;;;5050096;28;20045;-91
2023/12/31 03:38:44;;;;;;;1.52;0.50;;;9.90;73.20;;;;;;5049209;28;20518;-90
2023/12/31 03:41:10;;;;;;;1.48;0.55;;;9.80;73.00;;;;;;5036113;28;20047;-90
2023/12/31 03:43:36;;;;;;;2.15;0.40;;;9.80;73.10;;;;;;5029586;28;20033;-90
2023/12/31 03:46:03;;;;;;;1.30;0.30;;;9.80;73.10;;;;;;5055113;28;20040;-91
2023/12/31 03:48:29;;;;;;;1.63;0.40;;;9.80;73.10;;;;;;5021614;28;20045;-88
2023/12/31 03:50:56;;;;;;;2.67;0.50;;;9.80;73.10;;;;;;5026593;28;20031;-90
2023/12/31 03:53:22;;;;;;;2.22;0.40;;;9.80;73.10;;;;;;5043473;28;20028;-91
2023/12/31 03:55:48;;;;;;;4.93;0.45;;;9.80;73.10;;;;;;5031380;28;20037;-92
2023/12/31 03:58:16;;;;;;;3.03;0.50;;;9.80;73.10;;;;;;5040961;28;20492;-89
2023/12/31 04:00:43;;;;;;;3.42;0.60;;;9.80;73.10;;;;;;5041740;28;20037;-89
2023/12/31 04:03:10;;;;;;;1.90;0.47;;;9.70;72.90;;;;;;5029809;28;20441;-87
2023/12/31 04:05:37;;;;;;;1.77;0.68;;;9.70;72.90;;;;;;5034014;28;20389;-90
2023/12/31 04:08:04;;;;;;;2.45;0.55;;;9.70;72.90;;;;;;5024195;28;20044;-89
2023/12/31 04:10:32;;;;;;;0.90;0.40;;;9.70;72.90;;;;;;5037505;28;20382;-89
2023/12/31 04:12:58;;;;;;;2.15;0.40;;;9.70;73.00;;;;;;5042697;28;20505;-88
2023/12/31 04:15:24;;;;;;;3.33;0.65;;;9.70;72.90;;;;;;5041502;28;20056;-88
2023/12/31 04:17:52;;;;;;;1.00;0.40;;;9.70;72.90;;;;;;5057876;28;20064;-89
2023/12/31 04:20:18;;;;;;;3.25;0.50;;;9.70;72.90;;;;;;5041629;28;20021;-88
2023/12/31 04:22:44;;;;;;;2.60;1.20;;;9.70;73.00;;;;;;5038907;28;20025;-88
2023/12/31 04:25:11;;;;;;;0.85;0.40;;;9.60;72.70;;;;;;5037050;28;20044;-89
2023/12/31 04:27:40;;;;;;;1.75;0.50;;;9.60;72.70;;;;;;5032161;28;20035;-88
2023/12/31 04:30:07;;;;;;;1.63;0.47;;;9.60;72.80;;;;;;5042581;28;20028;-89
2023/12/31 04:32:33;;;;;;;3.65;0.60;;;9.60;72.80;;;;;;5044365;28;20071;-89
2023/12/31 04:34:59;;;;;;;2.38;0.40;;;9.60;72.80;;;;;;5045409;28;20044;-88
2023/12/31 04:37:26;;;;;;;3.40;0.70;;;9.60;72.80;;;;;;5037909;28;20083;-89
2023/12/31 04:39:53;;;;;;;3.63;0.70;;;9.60;72.80;;;;;;5038869;28;20407;-88
2023/12/31 04:42:19;;;;;;;1.33;0.43;;;9.60;72.80;;;;;;5043165;28;20029;-89
2023/12/31 04:44:45;;;;;;;1.15;0.50;;;9.60;72.80;;;;;;5042882;28;20703;-87
2023/12/31 04:47:11;;;;;;;2.53;0.60;;;9.50;72.60;;;;;;5044899;28;20178;-88
2023/12/31 04:49:37;;;;;;;2.15;0.65;;;9.50;72.60;;;;;;5040730;28;20029;-89
2023/12/31 04:52:05;;;;;;;3.90;0.77;;;9.50;72.60;;;;;;5045392;28;20047;-88
2023/12/31 04:54:31;;;;;;;2.28;0.65;;;9.50;72.70;;;;;;5043586;28;20025;-88
2023/12/31 04:56:57;;;;;;;3.28;0.70;;;9.50;72.70;;;;;;5048913;28;20150;-90
2023/12/31 04:59:24;;;;;;;3.95;0.82;;;9.40;72.50;;;;;;5039889;28;20052;-88
2023/12/31 05:01:51;;;;;;;2.90;1.10;;;9.40;72.50;;;;;;5038435;28;20037;-92
2023/12/31 05:04:19;;;;;;;3.03;0.65;;;9.40;72.50;;;;;;5042507;28;20502;-90
2023/12/31 05:06:45;;;;;;;3.53;1.23;;;9.40;72.50;;;;;;5033267;28;20128;-90
2023/12/31 05:09:11;;;;;;;2.13;0.60;;;9.40;72.50;;;;;;5039636;28;20026;-91
2023/12/31 05:11:38;;;;;;;3.67;0.95;;;9.40;72.50;;;;;;5032515;28;20264;-88
2023/12/31 05:14:05;;;;;;;5.93;1.05;;;9.30;72.30;;;;;;5036439;28;20060;-85
2023/12/31 05:16:31;;;;;;;2.72;0.60;;;9.30;72.30;;;;;;5039001;28;20048;-91
2023/12/31 05:18:59;;;;;;;2.42;0.45;;;9.30;72.30;;;;;;5043328;28;20068;-95
2023/12/31 05:21:27;;;;;;;4.07;1.00;;;9.30;72.30;;;;;;5044480;28;20037;-94
2023/12/31 05:23:53;;;;;;;8.20;1.40;;;9.30;72.30;;;;;;5056533;28;20381;-93
2023/12/31 05:26:19;;;;;;;4.75;0.90;;;9.20;72.10;;;;;;5040661;28;20080;-90
2023/12/31 05:28:46;;;;;;;6.03;1.98;;;9.20;72.20;;;;;;5039267;28;20720;-87
2023/12/31 05:31:15;;;;;;;4.30;1.70;;;9.20;72.20;;;;;;5040398;28;20509;-88
2023/12/31 05:33:41;;;;;;;3.92;1.23;;;9.20;72.20;;;;;;5040025;28;20076;-89
2023/12/31 05:36:07;;;;;;;5.05;1.48;;;9.20;72.20;;;;;;5026022;28;20064;-88
2023/12/31 05:38:34;;;;;;;5.72;2.10;;;9.20;72.30;;;;;;5032659;28;20037;-89
2023/12/31 05:41:00;;;;;;;4.00;1.33;;;9.10;72.10;;;;;;5040380;28;20342;-87
2023/12/31 05:43:27;;;;;;;8.10;1.38;;;9.10;72.10;;;;;;5042244;28;20025;-89
2023/12/31 05:45:53;;;;;;;8.13;1.70;;;9.10;72.10;;;;;;5041474;28;20028;-89
2023/12/31 05:48:22;;;;;;;6.10;1.77;;;9.10;72.20;;;;;;5038928;28;20102;-87
2023/12/31 05:50:50;;;;;;;6.50;2.17;;;9.00;72.00;;;;;;5024194;28;20099;-89
2023/12/31 05:53:19;;;;;;;4.97;1.27;;;9.00;72.00;;;;;;5049992;28;20041;-87
2023/12/31 05:55:47;;;;;;;6.88;1.73;;;9.00;72.10;;;;;;5022681;28;20122;-88
2023/12/31 05:58:14;;;;;;;4.38;1.17;;;9.00;72.10;;;;;;5034969;28;20051;-89
2023/12/31 06:00:40;;;;;;;4.43;1.60;;;8.90;72.10;;;;;;5035122;28;20079;-87
2023/12/31 06:03:06;;;;;;;6.97;1.90;;;9.00;72.20;;;;;;5055180;28;20045;-87
2023/12/31 06:05:32;;;;;;;9.43;2.00;;;8.90;72.10;;;;;;5039831;28;20095;-88
2023/12/31 06:07:58;;;;;;;12.82;2.20;;;8.90;72.10;;;;;;5031050;28;20057;-89
2023/12/31 06:10:25;;;;;;;9.43;2.40;;;8.90;72.10;;;;;;5025372;28;20029;-90
2023/12/31 06:12:51;;;;;;;7.38;1.80;;;8.90;72.20;;;;;;5057259;28;20091;-89
2023/12/31 06:15:17;;;;;;;7.28;1.77;;;8.90;72.20;;;;;;5064791;28;20449;-91
2023/12/31 06:17:43;;;;;;;6.70;1.83;;;8.90;72.20;;;;;;5031050;28;20048;-89
2023/12/31 06:20:10;;;;;;;9.10;1.95;;;8.90;72.20;;;;;;5040949;28;20037;-90
2023/12/31 06:22:36;;;;;;;9.00;1.70;;;8.90;72.30;;;;;;5039992;28;20310;-91
2023/12/31 06:25:02;;;;;;;3.70;1.60;;;8.90;72.20;;;;;;5052372;28;20150;-90
2023/12/31 06:27:28;;;;;;;11.20;2.15;;;8.90;72.20;;;;;;5038702;28;20344;-89
2023/12/31 06:29:54;;;;;;;6.05;1.98;;;8.90;72.30;;;;;;5056472;28;20027;-87
2023/12/31 06:32:21;;;;;;;8.82;2.17;;;8.80;72.10;;;;;;5045166;28;20037;-92
2023/12/31 06:34:47;;;;;;;12.45;1.95;;;8.90;72.30;;;;;;5059054;28;20106;-89
2023/12/31 06:37:14;;;;;;;8.90;1.77;;;8.90;72.30;;;;;;5043018;28;20099;-91
2023/12/31 06:39:44;;;;;;;9.60;2.10;;;8.90;72.30;;;;;;5039079;28;20029;-87
2023/12/31 06:42:11;;;;;;;8.00;1.90;;;8.90;72.30;;;;;;5062606;28;20691;-88
2023/12/31 06:44:38;;;;;;;8.63;1.73;;;8.90;72.30;;;;;;5037704;28;20063;-89
2023/12/31 06:47:04;;;;;;;9.13;1.83;;;8.90;72.30;;;;;;5044570;28;20160;-88
2023/12/31 06:49:30;;;;;;;12.10;2.25;;;8.90;72.30;;;;;;5037612;28;20032;-88
2023/12/31 06:51:56;;;;;;;7.55;2.15;;;8.90;72.30;;;;;;5049543;28;20609;-89
2023/12/31 06:54:21;;;;;;;7.13;1.70;;;8.90;72.30;;;;;;5044328;28;20040;-88
2023/12/31 06:56:48;;;;;;;4.70;1.50;;;8.90;72.30;;;;;;5045439;28;20035;-89
2023/12/31 06:59:14;;;;;;;8.35;2.10;;;8.90;72.30;;;;;;5049140;28;20305;-89
2023/12/31 07:01:40;;;;;;;9.60;2.30;;;8.90;72.40;;;;;;5055840;28;20041;-87
2023/12/31 07:04:07;;;;;;;11.20;2.22;;;8.90;72.30;;;;;;5043477;28;20052;-91
2023/12/31 07:06:33;;;;;;;4.20;2.20;;;8.90;72.40;;;;;;5035897;28;20033;-89
2023/12/31 07:08:59;;;;;;;7.65;2.45;;;9.00;72.50;;;;;;5039261;28;20082;-89
2023/12/31 07:11:26;;;;;;;7.53;1.98;;;8.90;72.30;;;;;;5038723;28;20041;-88
2023/12/31 07:13:54;;;;;;;7.57;1.90;;;9.00;72.50;;;;;;5041831;28;20127;-91
2023/12/31 07:16:22;;;;;;;10.30;1.73;;;8.90;72.30;;;;;;5039282;28;20123;-86
2023/12/31 07:18:49;;;;;;;9.63;2.30;;;8.90;72.30;;;;;;5042266;28;20574;-88
2023/12/31 07:21:24;;;;;;;7.70;2.10;;;9.00;72.50;;;;;;5042491;28;20039;-89
2023/12/31 07:23:51;;;;;;;8.63;2.38;;;8.90;72.30;;;;;;5048074;28;20036;-90
2023/12/31 07:26:25;;;;;;;8.85;1.92;;;8.90;72.30;;;;;;5061752;28;20033;-87
2023/12/31 07:28:51;;;;;;;8.23;1.55;;;8.90;72.30;;;;;;5057297;28;20029;-87
2023/12/31 07:31:18;;;;;;;8.15;1.83;;;8.90;72.30;;;;;;5029299;28;20088;-91
2023/12/31 07:33:44;;;;;;;9.65;2.00;;;8.90;72.30;;;;;;5053717;28;20101;-91
2023/12/31 07:36:10;;;;;;;8.18;1.85;;;8.90;72.30;;;;;;5058039;28;20045;-91
2023/12/31 07:38:35;;;;;;;7.50;1.70;;;8.90;72.30;;;;;;5060798;28;20096;-92
2023/12/31 07:41:01;;;;;;;6.60;2.13;;;8.90;72.30;;;;;;5052855;28;20029;-93
2023/12/31 07:43:28;;;;;;;9.93;2.17;;;8.90;72.30;;;;;;5068206;28;20055;-92
2023/12/31 07:45:54;;;;;;;9.57;1.98;;;8.90;72.40;;;;;;5061084;28;20013;-89
2023/12/31 07:48:20;;;;;;;11.15;2.40;;;8.90;72.40;;;;;;5051245;28;20050;-88
2023/12/31 07:50:47;;;;;;;6.13;2.70;;;8.90;72.40;;;;;;5043938;28;20146;-91
2023/12/31 07:53:13;;;;;;;8.10;1.80;;;8.90;72.40;;;;;;5046843;28;20036;-90
2023/12/31 07:55:39;;;;;;;7.13;1.48;;;8.90;72.40;;;;;;5042599;28;20025;-90
2023/12/31 07:58:04;;;;;;;7.45;1.55;;;8.90;72.40;;;;;;5042137;28;20036;-89
2023/12/31 08:00:31;;;;;;;7.15;2.47;;;8.90;72.40;;;;;;5040327;28;20045;-90
2023/12/31 08:02:57;;;;;;;6.50;1.50;;;8.90;72.40;;;;;;5046064;28;20033;-92
2023/12/31 08:05:23;;;;;;;7.60;2.35;;;9.00;72.90;;;;;;5028286;28;20478;-91
2023/12/31 08:07:49;;;;;;;13.55;2.55;;;9.00;72.60;;;;;;5045251;28;20518;-91
2023/12/31 08:10:14;;;;;;;11.00;1.92;;;9.00;72.50;;;;;;5020404;28;20043;-92
2023/12/31 08:12:41;;;;;;;9.40;2.50;;;8.90;72.40;;;;;;5027586;28;20216;-93
2023/12/31 08:15:07;;;;;;;11.60;2.53;;;9.00;72.60;;;;;;5036835;28;20052;-94
2023/12/31 08:17:34;;;;;;;7.07;1.42;;;9.00;72.50;;;;;;5049275;28;20036;-94
2023/12/31 08:20:01;;;;;;;10.68;2.60;;;9.00;72.50;;;;;;5035638;28;20056;-93
2023/12/31 08:22:27;;;;;;;7.97;1.35;;;9.00;72.50;;;;;;5057688;28;20487;-91
2023/12/31 08:24:53;;;;;;;6.00;1.40;;;9.00;72.50;;;;;;5067899;28;20082;-90
2023/12/31 08:27:20;;;;;;;9.70;2.83;;;9.00;72.50;;;;;;5045411;28;20029;-89
2023/12/31 08:29:46;;;;;;;8.20;1.65;;;9.00;72.50;;;;;;5033515;28;20028;-90
2023/12/31 08:32:12;;;;;;;6.60;1.40;;;9.10;72.70;;;;;;5032060;28;20032;-89
2023/12/31 08:34:37;;;;;;;7.22;1.75;;;9.10;72.70;;;;;;5025363;28;20037;-89
2023/12/31 08:37:03;;;;;;;9.00;1.73;;;9.10;72.70;;;;;;5040390;28;20196;-91
2023/12/31 08:39:29;;;;;;;4.30;1.42;;;9.10;72.70;;;;;;5023407;28;20068;-89
2023/12/31 08:41:56;;;;;;;6.93;2.17;;;9.10;72.60;;;;;;5038761;28;20021;-90
2023/12/31 08:44:22;;;;;;;7.60;1.67;;;9.10;72.70;;;;;;5063145;28;20029;-91
2023/12/31 08:46:50;;;;;;;6.70;1.40;;;9.10;72.60;;;;;;5048085;28;20040;-93
2023/12/31 08:49:16;;;;;;;5.50;1.15;;;9.10;72.60;;;;;;5045125;28;20032;-96
2023/12/31 08:51:43;;;;;;;7.85;1.73;;;9.10;72.60;;;;;;5062990;28;20041;-96
2023/12/31 08:54:09;;;;;;;6.50;1.70;;;9.10;72.70;;;;;;5073618;28;20143;-90
2023/12/31 08:56:38;;;;;;;8.48;1.55;;;9.10;72.60;;;;;;5050985;28;20107;-89
2023/12/31 08:59:06;;;;;;;9.98;1.80;;;9.10;72.80;;;;;;5057625;28;20045;-89
2023/12/31 09:01:34;;;;;;;8.40;1.80;;;9.20;73.00;;;;;;5051938;28;20597;-87
2023/12/31 09:04:00;;;;;;;8.30;1.92;;;9.20;73.20;;;;;;5031259;28;20028;-91
2023/12/31 09:06:26;;;;;;;8.60;2.88;;;9.30;73.50;;;;;;5058167;28;20425;-90
2023/12/31 09:08:56;;;;;;;7.55;1.73;;;9.30;73.60;;;;;;5047561;28;20021;-94
2023/12/31 09:11:24;;;;;;;7.95;1.63;;;9.40;73.90;;;;;;5064033;28;20036;-91
2023/12/31 09:13:50;;;;;;;7.15;1.83;;;9.40;74.00;;;;;;5047211;28;20036;-92
2023/12/31 09:16:16;;;;;;;7.07;2.30;;;9.50;74.30;;;;;;5047724;28;20400;-91
2023/12/31 09:18:42;;;;;;;3.75;1.23;;;9.60;74.60;;;;;;5047100;28;20043;-93
2023/12/31 09:21:11;;;;;;;6.53;1.38;;;9.60;74.60;;;;;;5062370;28;20118;-93
2023/12/31 09:23:45;;;;;;;7.25;1.42;;;9.70;74.80;;;;;;5031335;28;20029;-95
2023/12/31 09:26:13;;;;;;;4.53;0.90;;;9.70;74.70;;;;;;5063437;28;20029;-94
2023/12/31 09:28:42;;;;;;;6.28;1.13;;;9.80;74.80;;;;;;5037525;28;20153;-95
2023/12/31 09:31:08;;;;;;;6.10;1.45;;;9.80;74.90;;;;;;5040994;28;20159;-95
2023/12/31 09:33:34;;;;;;;4.70;1.45;;;9.80;74.90;;;;;;5030460;28;20460;-94
2023/12/31 09:36:04;;;;;;;5.25;1.30;;;9.90;75.10;;;;;;5038865;28;20021;-95
2023/12/31 09:38:31;;;;;;;7.25;1.50;;;9.90;75.10;;;;;;5064045;28;20199;-96
2023/12/31 09:40:57;;;;;;;3.47;1.05;;;9.90;75.00;;;;;;5058772;28;20082;-94
2023/12/31 09:43:25;;;;;;;3.63;0.77;;;9.90;75.00;;;;;;5042288;28;20074;-94
2023/12/31 09:45:52;;;;;;;2.30;0.60;;;10.00;75.10;;;;;;5053831;28;20052;-92
2023/12/31 09:48:19;;;;;;;3.45;0.80;;;9.90;74.90;;;;;;5022272;28;20056;-91
2023/12/31 09:50:46;;;;;;;2.80;1.00;;;9.90;74.80;;;;;;5044300;28;20044;-93
2023/12/31 09:53:16;;;;;;;5.53;1.20;;;9.90;74.80;;;;;;5034848;28;20033;-93
2023/12/31 09:55:42;;;;;;;2.72;1.02;;;10.00;74.90;;;;;;5046870;28;20140;-92
2023/12/31 09:58:09;;;;;;;3.65;1.02;;;10.00;74.80;;;;;;5036821;28;20507;-94
2023/12/31 10:00:35;;;;;;;8.95;1.30;;;10.00;74.80;;;;;;5047852;28;20033;-90
2023/12/31 10:03:03;;;;;;;5.70;1.35;;;10.00;74.70;;;;;;5038265;28;20592;-95
2023/12/31 10:05:31;;;;;;;3.80;1.50;;;10.00;74.70;;;;;;5026860;28;20036;-95
2023/12/31 10:07:59;;;;;;;3.00;1.10;;;10.00;74.60;;;;;;5039832;28;20048;-91
2023/12/31 10:10:27;;;;;;;5.63;1.70;;;10.00;74.60;;;;;;5047520;28;20271;-92
2023/12/31 10:12:53;;;;;;;6.85;1.30;;;10.00;74.60;;;;;;5046639;28;20183;-93
2023/12/31 10:15:20;;;;;;;6.05;1.15;;;10.00;74.50;;;;;;5040106;28;20037;-95
2023/12/31 10:17:51;;;;;;;4.65;1.45;;;10.00;74.50;;;;;;5057788;28;20054;-95
2023/12/31 10:20:20;;;;;;;3.22;1.10;;;10.00;74.40;;;;;;5066529;28;20025;-94
2023/12/31 10:22:50;;;;;;;7.43;1.33;;;10.00;74.30;;;;;;5037732;28;20065;-95
2023/12/31 10:25:19;;;;;;;6.03;1.58;;;10.00;74.30;;;;;;5052787;28;20089;-94
2023/12/31 10:27:49;;;;;;;6.70;1.67;;;10.00;74.30;;;;;;5052670;28;21273;-93
2023/12/31 10:30:17;;;;;;;2.90;1.33;;;10.00;74.20;;;;;;5052580;28;20033;-93
2023/12/31 10:32:44;;;;;;;6.10;1.25;;;10.00;74.20;;;;;;5060658;28;20029;-90
2023/12/31 10:35:20;;;;;;;5.00;1.95;;;10.00;74.30;;;;;;5048129;28;20033;-92
2023/12/31 10:37:47;;;;;;;7.78;2.10;;;10.00;74.30;;;;;;5043135;28;20546;-96
2023/12/31 10:40:22;;;;;;;7.55;1.77;;;10.00;74.30;;;;;;5044852;28;20051;-93
2023/12/31 10:42:56;;;;;;;3.72;1.02;;;10.00;74.30;;;;;;5041223;28;20056;-91
2023/12/31 10:45:27;;;;;;;10.05;1.35;;;10.10;74.40;;;;;;5042295;28;20507;-92
2023/12/31 10:48:07;;;;;;;8.40;2.20;;;10.10;74.30;;;;;;5040158;28;20045;-96
2023/12/31 10:50:39;;;;;;;8.43;1.75;;;10.10;74.20;;;;;;5028224;28;20029;-96
2023/12/31 10:53:11;;;;;;;9.77;2.10;;;10.10;74.20;;;;;;5042139;28;20048;-92
2023/12/31 10:55:40;;;;;;;7.07;1.75;;;10.20;74.30;;;;;;5043914;28;20104;-92
2023/12/31 10:58:07;;;;;;;13.02;2.17;;;10.20;74.30;;;;;;5047200;28;20032;-92
2023/12/31 11:00:38;;;;;;;8.60;2.13;;;10.30;74.40;;;;;;5057625;28;20056;-90
2023/12/31 11:03:10;;;;;;;12.23;2.63;;;10.30;74.30;;;;;;5044051;28;20033;-91
2023/12/31 11:05:40;;;;;;;10.52;2.63;;;10.40;74.40;;;;;;5036784;28;20502;-94
2023/12/31 11:08:08;;;;;;;8.07;2.47;;;10.40;74.30;;;;;;5041599;28;20051;-94
2023/12/31 11:10:36;;;;;;;10.88;2.28;;;10.50;74.30;;;;;;5045623;28;20029;-90
2023/12/31 11:13:04;;;;;;;9.35;2.30;;;10.50;74.20;;;;;;5056687;28;20087;-87
2023/12/31 11:15:32;;;;;;;15.90;2.45;;;10.50;74.20;;;;;;5031917;28;20116;-92
2023/12/31 11:18:15;;;;;;;9.95;2.78;;;10.50;74.20;;;;;;5035020;28;20474;-92
2023/12/31 11:21:12;;;;;;;9.25;2.30;;;10.60;74.40;;;;;;5046238;28;20335;-92
2023/12/31 11:23:58;;;;;;;14.23;3.53;;;10.60;74.30;;;;;;5023925;28;20048;-85
2023/12/31 11:26:25;;;;;;;8.68;1.70;;;10.70;74.40;;;;;;5051197;28;20032;-87
2023/12/31 11:28:54;;;;;;;7.13;1.83;;;10.80;74.60;;;;;;5028930;28;20056;-92
2023/12/31 11:31:28;;;;;;;11.45;2.50;;;10.90;74.90;;;;;;5068033;28;20033;-90
2023/12/31 11:34:00;;;;;;;10.50;2.25;;;11.00;75.00;;;;;;5056522;28;20530;-93
2023/12/31 11:36:32;;;;;;;10.15;2.20;;;11.10;75.00;;;;;;5049184;28;20207;-94
2023/12/31 11:39:20;;;;;;;12.60;2.67;;;11.20;75.20;;;;;;5047630;28;20139;-96
2023/12/31 11:42:17;;;;;;;10.10;3.55;;;11.40;75.40;;;;;;5049900;28;20092;-95
2023/12/31 11:44:48;;;;;;;13.18;3.10;;;11.70;75.60;;;;;;5069429;28;20081;-95
2023/12/31 11:47:25;;;;;;;9.35;2.60;;;11.80;75.30;;;;;;5084628;28;20168;-94
2023/12/31 11:49:53;;;;;;;13.93;3.50;;;12.00;75.30;;;;;;5063339;28;20036;-95
2023/12/31 11:52:49;;;;;;;15.00;3.28;;;12.10;75.20;;;;;;5057915;28;20037;-94
2023/12/31 11:55:18;;;;;;;13.43;3.42;;;12.20;75.10;;;;;;5058189;28;20083;-95
2023/12/31 11:58:00;;;;;;;12.05;3.00;;;12.30;75.00;;;;;;5058468;28;20442;-94
2023/12/31 12:00:40;;;;;;;22.83;4.03;;;12.30;74.80;;;;;;5068262;28;20098;-86
2023/12/31 12:03:07;;;;;;;10.07;2.70;;;12.30;74.60;;;;;;5070837;28;20035;-91
2023/12/31 12:05:34;;;;;;;10.25;2.53;;;12.30;74.60;;;;;;5047320;28;20382;-87
2023/12/31 12:08:04;;;;;;;13.82;3.67;;;12.30;74.60;;;;;;5055243;28;20119;-88
2023/12/31 12:10:35;;;;;;;12.43;2.35;;;12.20;74.50;;;;;;5047467;28;20122;-86
2023/12/31 12:13:02;;;;;;;7.60;1.90;;;12.20;74.50;;;;;;5039375;28;20051;-91
2023/12/31 12:15:36;;;;;;;8.55;2.10;;;12.10;74.30;;;;;;5041721;28;20282;-95
2023/12/31 12:18:24;;;;;;;9.48;2.17;;;12.00;74.20;;;;;;5026685;28;20032;-93
2023/12/31 12:20:52;;;;;;;7.40;1.80;;;12.00;74.20;;;;;;5030863;28;20032;-92
2023/12/31 12:23:21;;;;;;;13.20;3.15;;;11.90;74.10;;;;;;5043533;28;20079;-87
2023/12/31 12:25:51;;;;;;;7.93;2.20;;;11.90;74.10;;;;;;5024290;28;20029;-86
2023/12/31 12:28:19;;;;;;;7.20;2.20;;;11.80;74.00;;;;;;5037982;28;20104;-91
2023/12/31 12:30:48;;;;;;;11.95;3.38;;;11.70;73.90;;;;;;5050868;28;20033;-95
2023/12/31 12:33:23;;;;;;;10.20;2.25;;;11.70;73.90;;;;;;5057253;28;20037;-96
2023/12/31 12:35:57;;;;;;;8.30;2.28;;;11.70;73.90;;;;;;5040766;28;20072;-96
2023/12/31 12:39:02;;;;;;;12.90;2.78;;;11.80;74.00;;;;;;5033215;28;20135;-95
2023/12/31 12:42:12;;;;;;;12.68;2.50;;;11.90;73.90;;;;;;5048125;28;20120;-96
2023/12/31 12:44:46;;;;;;;8.23;2.13;;;12.00;73.80;;;;;;5051751;28;20048;-91
2023/12/31 12:47:16;;;;;;;12.63;3.33;;;12.10;73.80;;;;;;5042260;28;20045;-81
2023/12/31 12:49:42;;;;;;;15.70;4.78;;;12.10;73.70;;;;;;5062199;28;20141;-92
2023/12/31 12:52:12;;;;;;;13.27;5.25;;;12.20;73.70;;;;;;5058071;28;20378;-91
2023/12/31 12:54:38;;;;;;;16.27;4.25;;;12.30;73.90;;;;;;5048073;28;20364;-93